Terminal Aerodrome Forecast
Issued by NWS Melbourne, FL

Current Version | Previous Version | Text Only | Print | Product List | Glossary On
Versions: 1 2 3 4 5 6 7 8 9 10 11 12 13 14 15 16 17 18
000
FTUS42 KMLB 231700
TAFDAB
TAF
KDAB 231739Z 2318/2418 25005KT P6SM SCT040
     FM232100 10009KT P6SM FEW040
     FM240200 24002KT P6SM SKC
      TEMPO 2409/2412 5SM BR SCT007
     FM241500 13008KT P6SM FEW040=

USA.gov is the U.S. government's official web portal to all federal, state and local government web resources and services.